Alva, WY

7:28 AM MDT on September 25, 2016 (GMT -0600)
Hulett

Weather History for KW43 - February, 2014

Change the Weather History Date:

Thursday, February 20, 2014

  Actual Average (KEFC) Record (KEFC)
Temperature  
Mean Temperature 28 °F -  
Max Temperature 32 °F 45 °F 70 °F (1982)
Min Temperature 24 °F 20 °F -22 °F (1959)
Degree Days  
Heating Degree Days 37    
Moisture  
Dew Point 15 °F    
Average Humidity 57    
Maximum Humidity 93    
Minimum Humidity 41    
Precipitation  
Precipitation 0.00 in - - ()
Sea Level Pressure  
Sea Level Pressure 29.75 in    
Wind  
Wind Speed 11 mph (West)    
Max Wind Speed 21 mph    
Max Gust Speed 32 mph    
Visibility 9 miles    
Events Snow    
Averages and records for this station are not official NWS values.
T = Trace of Precipitation, MM = Missing Value Source: NWS Daily Summary

Daily Weather History Graph

Daily Weather History Graph

Search for Another Location

Airport or City:

Trip Planner

Search our weather history database for the weather conditions in past years. The results will help you decide how hot, cold, wet, or windy it might be!

Date:

Astronomy

Feb. 20, 2014 Rise Set
Actual Time 6:50 AM MST 5:33 PM MST
Civil Twilight 6:21 AM MST 6:03 PM MST
Nautical Twilight 5:47 AM MST 6:37 PM MST
Astronomical Twilight 5:13 AM MST 7:11 PM MST
Moon 11:46 PM MST (2/20) 9:20 AM MST (2/20)
Length of Visible Light 11h 42m
Length of Day
10h 43m
Waning Gibbous, 70% of the Moon is Illuminated
Feb 20
Waning Gibbous
Feb 22
Last Quarter
Mar 1
New
Mar 8
First Quarter
Mar 16
Full

Hourly Weather History & Observations

Time (MST) Temp. Windchill Dew Point Humidity Pressure Visibility Wind Dir Wind Speed Gust Speed Precip Events Conditions
12:15 AM 28.4 °F 19.7 °F 14.0 °F 55% 29.70 in 10.0 mi West 9.2 mph - N/A   Clear
12:35 AM 28.4 °F 18.5 °F 14.0 °F 55% 29.70 in 10.0 mi WSW 11.5 mph 17.3 mph N/A   Clear
12:55 AM 28.4 °F 18.0 °F 14.0 °F 55% 29.70 in 10.0 mi West 12.7 mph 21.9 mph N/A   Clear
1:15 AM 28.4 °F 17.5 °F 14.0 °F 55% 29.69 in 10.0 mi West 13.8 mph 19.6 mph N/A   Clear
1:35 AM 28.4 °F 17.5 °F 14.0 °F 55% 29.70 in 10.0 mi West 13.8 mph 19.6 mph N/A   Clear
1:55 AM 28.4 °F 19.7 °F 14.0 °F 55% 29.70 in 10.0 mi West 9.2 mph - N/A   Clear
2:15 AM 28.4 °F 18.0 °F 14.0 °F 55% 29.70 in 10.0 mi West 12.7 mph 18.4 mph N/A   Clear
2:35 AM 28.4 °F 17.5 °F 14.0 °F 55% 29.70 in 10.0 mi West 13.8 mph 20.7 mph N/A   Clear
2:55 AM 28.4 °F 18.5 °F 14.0 °F 55% 29.70 in 10.0 mi West 11.5 mph 17.3 mph N/A   Clear
3:15 AM 28.4 °F 16.6 °F 14.0 °F 55% 29.71 in 10.0 mi West 16.1 mph 24.2 mph N/A   Clear
3:35 AM 28.4 °F 17.0 °F 14.0 °F 55% 29.71 in 10.0 mi West 15.0 mph 24.2 mph N/A   Clear
3:55 AM 28.4 °F 16.6 °F 14.0 °F 55% 29.71 in 10.0 mi West 16.1 mph 26.5 mph N/A   Scattered Clouds
4:15 AM 28.4 °F 18.5 °F 14.0 °F 55% 29.71 in 10.0 mi WNW 11.5 mph 25.3 mph N/A   Overcast
4:35 AM 28.4 °F 18.5 °F 14.0 °F 55% 29.71 in 10.0 mi WNW 11.5 mph 20.7 mph N/A   Overcast
4:55 AM 28.4 °F 18.5 °F 14.0 °F 55% 29.72 in 10.0 mi WNW 11.5 mph 25.3 mph N/A   Overcast
5:15 AM 28.4 °F 18.0 °F 14.0 °F 55% 29.73 in 10.0 mi WNW 12.7 mph 20.7 mph N/A   Overcast
5:35 AM 28.4 °F 18.0 °F 15.8 °F 59% 29.74 in 10.0 mi West 12.7 mph 24.2 mph N/A Snow Light Snow
5:55 AM 28.4 °F 18.0 °F 17.6 °F 64% 29.75 in 10.0 mi WNW 12.7 mph 27.6 mph N/A Snow Light Snow
6:15 AM 26.6 °F 13.8 °F 19.4 °F 74% 29.75 in 4.0 mi WNW 17.3 mph 28.8 mph N/A Snow Light Snow
6:35 AM 26.6 °F 14.3 °F 23.0 °F 86% 29.76 in 0.8 mi WNW 16.1 mph 24.2 mph N/A Snow Light Snow
6:55 AM 26.6 °F 14.3 °F 21.2 °F 80% 29.77 in 2.5 mi WNW 16.1 mph 24.2 mph N/A Snow Light Snow
7:15 AM 26.6 °F 19.1 °F 23.0 °F 86% 29.78 in 0.5 mi WNW 6.9 mph 17.3 mph N/A Snow Snow
7:35 AM 24.8 °F 16.9 °F 23.0 °F 93% 29.80 in 0.5 mi NNW 6.9 mph - N/A Snow Snow
7:55 AM 24.8 °F 11.5 °F 17.6 °F 74% 29.81 in 7.0 mi NW 17.3 mph 29.9 mph N/A   Mostly Cloudy
8:15 AM 24.8 °F 16.9 °F 17.6 °F 74% 29.83 in 10.0 mi WNW 6.9 mph 23.0 mph N/A   Mostly Cloudy
8:35 AM 24.8 °F 13.4 °F 15.8 °F 69% 29.83 in 10.0 mi NW 12.7 mph 25.3 mph N/A   Scattered Clouds
8:55 AM 26.6 °F 15.7 °F 15.8 °F 64% 29.84 in 10.0 mi NW 12.7 mph 25.3 mph N/A   Scattered Clouds
9:15 AM 26.6 °F 16.2 °F 14.0 °F 59% 29.84 in 10.0 mi NW 11.5 mph 23.0 mph N/A   Mostly Cloudy
9:35 AM 26.6 °F 14.7 °F 14.0 °F 59% 29.85 in 10.0 mi NW 15.0 mph 32.2 mph N/A   Overcast
9:55 AM 26.6 °F 16.2 °F 15.8 °F 64% 29.85 in 10.0 mi NW 11.5 mph 24.2 mph N/A   Overcast
12:15 PM 30.2 °F 19.3 °F 19.4 °F 64% 29.84 in 10.0 mi NW 15.0 mph 25.3 mph N/A   Overcast
12:55 PM 30.2 °F 19.8 °F 19.4 °F 64% 29.84 in 10.0 mi NW 13.8 mph 28.8 mph N/A Snow Light Snow
1:15 PM 30.2 °F 17.4 °F 15.8 °F 55% 29.83 in 10.0 mi WNW 20.7 mph 27.6 mph N/A   Mostly Cloudy
1:35 PM 30.2 °F 19.3 °F 15.8 °F 55% 29.83 in 10.0 mi WNW 15.0 mph 24.2 mph N/A   Scattered Clouds
4:15 PM 32.0 °F 24.2 °F 10.4 °F 41% 29.80 in 10.0 mi West 9.2 mph - N/A   Clear
4:35 PM 32.0 °F 26.4 °F 10.4 °F 41% 29.79 in 10.0 mi West 5.8 mph - N/A   Clear
4:55 PM 32.0 °F 26.4 °F 12.2 °F 44% 29.78 in 10.0 mi WSW 5.8 mph - N/A   Clear
5:15 PM 32.0 °F 27.5 °F 12.2 °F 44% 29.78 in 10.0 mi WSW 4.6 mph - N/A   Clear
5:35 PM 30.2 °F 25.4 °F 12.2 °F 47% 29.77 in 10.0 mi SW 4.6 mph - N/A   Clear
5:55 PM 30.2 °F 24.3 °F 12.2 °F 47% 29.76 in 10.0 mi WSW 5.8 mph - N/A   Clear
6:15 PM 30.2 °F 24.3 °F 10.4 °F 44% 29.76 in 10.0 mi WSW 5.8 mph - N/A   Clear
6:35 PM 30.2 °F 23.4 °F 10.4 °F 44% 29.76 in 10.0 mi WSW 6.9 mph - N/A   Clear
6:55 PM 30.2 °F 23.4 °F 10.4 °F 44% 29.75 in 10.0 mi SW 6.9 mph - N/A   Scattered Clouds
7:15 PM 30.2 °F 24.3 °F 10.4 °F 44% 29.75 in 10.0 mi WSW 5.8 mph - N/A   Scattered Clouds
7:35 PM 26.6 °F 17.5 °F 12.2 °F 55% 29.75 in 10.0 mi SSW 9.2 mph - N/A   Clear
7:55 PM 26.6 °F 20.0 °F 14.0 °F 59% 29.74 in 10.0 mi SW 5.8 mph - N/A   Mostly Cloudy
8:15 PM 30.2 °F 23.4 °F 12.2 °F 47% 29.74 in 10.0 mi SW 6.9 mph - N/A   Overcast
8:35 PM 30.2 °F 22.6 °F 10.4 °F 44% 29.74 in 10.0 mi SW 8.1 mph - N/A   Overcast
8:56 PM 30.2 °F 23.4 °F 10.4 °F 44% 29.73 in 10.0 mi SW 6.9 mph - N/A   Overcast
9:15 PM 28.4 °F 21.2 °F 12.2 °F 51% 29.72 in 10.0 mi SSW 6.9 mph - N/A   Overcast
9:35 PM 28.4 °F 20.4 °F 14.0 °F 55% 29.71 in 10.0 mi SSW 8.1 mph - N/A   Overcast
9:55 PM 30.2 °F 23.4 °F 10.4 °F 44% 29.71 in 10.0 mi SW 6.9 mph - N/A   Overcast
10:15 PM 30.2 °F 23.4 °F 14.0 °F 51% 29.71 in 10.0 mi SW 6.9 mph - N/A   Overcast
10:35 PM 30.2 °F 23.4 °F 14.0 °F 51% 29.71 in 10.0 mi WSW 6.9 mph - N/A   Overcast
10:55 PM 30.2 °F 21.9 °F 17.6 °F 60% 29.70 in 10.0 mi WSW 9.2 mph - N/A   Overcast
11:15 PM 30.2 °F 24.3 °F 19.4 °F 64% 29.70 in 10.0 mi WSW 5.8 mph - N/A   Mostly Cloudy
11:35 PM 30.2 °F 22.6 °F 15.8 °F 55% 29.69 in 10.0 mi SW 8.1 mph - N/A   Mostly Cloudy
11:55 PM 30.2 °F 23.4 °F 17.6 °F 60% 29.68 in 10.0 mi SSW 6.9 mph - N/A   Overcast